createdAt,value
2023-03-08T00:00:02.858Z,24.3800
2023-03-08T00:00:14.038Z,24.3800
2023-03-08T00:00:25.214Z,24.3800
2023-03-08T00:00:36.269Z,24.3900
2023-03-08T00:00:47.345Z,24.3900
2023-03-08T00:00:58.379Z,24.3800
2023-03-08T00:01:09.455Z,24.3800
2023-03-08T00:01:20.496Z,24.3900
2023-03-08T00:01:31.551Z,24.3900
2023-03-08T00:01:42.669Z,24.3900
2023-03-08T00:01:53.864Z,24.4000
2023-03-08T00:02:04.940Z,24.3900
2023-03-08T00:02:16.005Z,24.3900
2023-03-08T00:02:27.144Z,24.3900
2023-03-08T00:02:38.370Z,24.3800
2023-03-08T00:02:49.598Z,24.3800
2023-03-08T00:03:00.750Z,24.3800
2023-03-08T00:03:11.791Z,24.3800
2023-03-08T00:03:22.848Z,24.3800
2023-03-08T00:03:34.079Z,24.3800
2023-03-08T00:03:45.367Z,24.3800
2023-03-08T00:03:56.531Z,24.3700
2023-03-08T00:04:07.752Z,24.3700
2023-03-08T00:04:18.996Z,24.3700
2023-03-08T00:04:30.518Z,24.3600
2023-03-08T00:04:41.635Z,24.3600
2023-03-08T00:04:52.798Z,24.3600
2023-03-08T00:05:04.088Z,24.3600
2023-03-08T00:05:15.150Z,24.3600
2023-03-08T00:05:26.349Z,24.3600
2023-03-08T00:05:37.380Z,24.3700
2023-03-08T00:05:48.430Z,24.3700
2023-03-08T00:05:59.639Z,24.3700
2023-03-08T00:06:10.825Z,24.3700
2023-03-08T00:06:22.031Z,24.3600
2023-03-08T00:06:33.226Z,24.3500
2023-03-08T00:06:44.428Z,24.3400
2023-03-08T00:06:55.619Z,24.3300
2023-03-08T00:07:06.828Z,24.3300
2023-03-08T00:07:17.873Z,24.3300
2023-03-08T00:07:28.948Z,24.3400
2023-03-08T00:07:40.022Z,24.3400
2023-03-08T00:07:51.113Z,24.3500
2023-03-08T00:08:02.183Z,24.3500
2023-03-08T00:08:13.440Z,24.3600
2023-03-08T00:08:24.475Z,24.3600
2023-03-08T00:08:35.618Z,24.3600
2023-03-08T00:08:46.679Z,24.3600
2023-03-08T00:08:57.895Z,24.3600
2023-03-08T00:09:09.066Z,24.3700
2023-03-08T00:09:20.269Z,24.3700
2023-03-08T00:09:31.339Z,24.3700
2023-03-08T00:09:42.560Z,24.3700
2023-03-08T00:09:53.628Z,24.3700
2023-03-08T00:10:04.751Z,24.3600
2023-03-08T00:10:15.950Z,24.3700
2023-03-08T00:10:27.156Z,24.3700
2023-03-08T00:10:38.192Z,24.3700
2023-03-08T00:10:49.249Z,24.3700
2023-03-08T00:11:00.435Z,24.3700
2023-03-08T00:11:11.665Z,24.3700
2023-03-08T00:11:22.820Z,24.3600
2023-03-08T00:11:34.056Z,24.3500
2023-03-08T00:11:45.101Z,24.3500
2023-03-08T00:11:56.164Z,24.3500
2023-03-08T00:12:07.312Z,24.3500
2023-03-08T00:12:18.340Z,24.3500
2023-03-08T00:12:29.398Z,24.3600
2023-03-08T00:12:40.616Z,24.3600
2023-03-08T00:12:51.685Z,24.3600
2023-03-08T00:13:02.770Z,24.3600
2023-03-08T00:13:13.865Z,24.3600
2023-03-08T00:13:25.083Z,24.3600
2023-03-08T00:13:36.269Z,24.3500
2023-03-08T00:13:47.465Z,24.3500
2023-03-08T00:13:58.512Z,24.3500
2023-03-08T00:14:09.543Z,24.3500
2023-03-08T00:14:20.641Z,24.3500
2023-03-08T00:14:31.693Z,24.3400
2023-03-08T00:14:42.830Z,24.3300
2023-03-08T00:14:54.053Z,24.3300
2023-03-08T00:15:05.102Z,24.3300
2023-03-08T00:15:16.146Z,24.3300
2023-03-08T00:15:27.311Z,24.3300
2023-03-08T00:15:38.512Z,24.3400
2023-03-08T00:15:49.739Z,24.3400
2023-03-08T00:16:00.963Z,24.3400
2023-03-08T00:16:12.138Z,24.3400
2023-03-08T00:16:23.394Z,24.3300
2023-03-08T00:16:34.481Z,24.3400
2023-03-08T00:16:45.743Z,24.3400
2023-03-08T00:16:56.910Z,24.3400
2023-03-08T00:17:08.107Z,24.3300
2023-03-08T00:17:19.156Z,24.3200
2023-03-08T00:17:30.185Z,24.3300
2023-03-08T00:17:41.384Z,24.3300
2023-03-08T00:17:52.608Z,24.3400
2023-03-08T00:18:03.779Z,24.3400
2023-03-08T00:18:14.825Z,24.3300
2023-03-08T00:18:25.878Z,24.3300
2023-03-08T00:18:36.938Z,24.3300
2023-03-08T00:18:48.020Z,24.3300
2023-03-08T00:18:59.145Z,24.3300
2023-03-08T00:19:10.345Z,24.3300
2023-03-08T00:19:21.420Z,24.3200
2023-03-08T00:19:32.454Z,24.3200
2023-03-08T00:19:43.623Z,24.3200
2023-03-08T00:19:54.824Z,24.3200
2023-03-08T00:20:06.025Z,24.3200
2023-03-08T00:20:17.223Z,24.3200
2023-03-08T00:20:28.428Z,24.3200
2023-03-08T00:20:39.481Z,24.3200
2023-03-08T00:20:50.549Z,24.3300
2023-03-08T00:21:01.728Z,24.3300
2023-03-08T00:21:12.898Z,24.3400
2023-03-08T00:21:24.105Z,24.3300
2023-03-08T00:21:35.302Z,24.3200
2023-03-08T00:21:46.516Z,24.3200
2023-03-08T00:21:57.699Z,24.3300
2023-03-08T00:22:08.899Z,24.3300
2023-03-08T00:22:19.929Z,24.3300
2023-03-08T00:22:30.979Z,24.3300
2023-03-08T00:22:42.197Z,24.3300
2023-03-08T00:22:53.434Z,24.3400
2023-03-08T00:23:04.598Z,24.3400
2023-03-08T00:23:15.635Z,24.3400
2023-03-08T00:23:26.703Z,24.3400
2023-03-08T00:23:37.756Z,24.3400
2023-03-08T00:23:48.818Z,24.3300
2023-03-08T00:23:59.869Z,24.3200
2023-03-08T00:24:10.939Z,24.3200
2023-03-08T00:24:22.032Z,24.3100
2023-03-08T00:24:33.220Z,24.3100
2023-03-08T00:24:44.278Z,24.3000
2023-03-08T00:24:55.339Z,24.3000
2023-03-08T00:25:06.510Z,24.3100
2023-03-08T00:25:17.599Z,24.3100
2023-03-08T00:25:28.675Z,24.3100
2023-03-08T00:25:39.711Z,24.3000
2023-03-08T00:25:50.750Z,24.3000
2023-03-08T00:26:01.859Z,24.3000
2023-03-08T00:26:13.085Z,24.3000
2023-03-08T00:26:24.104Z,24.3000
2023-03-08T00:26:35.147Z,24.3000
2023-03-08T00:26:46.180Z,24.2900
2023-03-08T00:26:57.234Z,24.2900
2023-03-08T00:27:08.425Z,24.2900
2023-03-08T00:27:19.485Z,24.2900
2023-03-08T00:27:30.555Z,24.3000
2023-03-08T00:27:41.883Z,24.3100
2023-03-08T00:27:52.945Z,24.3100
2023-03-08T00:28:04.146Z,24.3200
2023-03-08T00:28:15.308Z,24.3300
2023-03-08T00:28:26.514Z,24.3300
2023-03-08T00:28:37.584Z,24.3300
2023-03-08T00:28:48.966Z,24.3300
2023-03-08T00:29:00.214Z,24.3200
2023-03-08T00:29:11.422Z,24.3200
2023-03-08T00:29:22.551Z,24.3100
2023-03-08T00:29:33.714Z,24.3100
2023-03-08T00:29:44.912Z,24.3200
2023-03-08T00:29:56.117Z,24.3200
2023-03-08T00:30:07.322Z,24.3200
2023-03-08T00:30:18.527Z,24.3200
2023-03-08T00:30:29.706Z,24.3200
2023-03-08T00:30:40.759Z,24.3100
2023-03-08T00:30:51.812Z,24.3000
2023-03-08T00:31:03.016Z,24.2900
2023-03-08T00:31:14.096Z,24.2800
2023-03-08T00:31:25.326Z,24.2700
2023-03-08T00:31:36.419Z,24.2700
2023-03-08T00:31:47.577Z,24.2700
2023-03-08T00:31:58.655Z,24.2800
2023-03-08T00:32:09.776Z,24.2800
2023-03-08T00:32:21.007Z,24.2900
2023-03-08T00:32:32.077Z,24.3000
2023-03-08T00:32:43.187Z,24.3100
2023-03-08T00:32:54.218Z,24.3100
2023-03-08T00:33:05.311Z,24.3100
2023-03-08T00:33:16.425Z,24.3200
2023-03-08T00:33:27.464Z,24.3200
2023-03-08T00:33:38.520Z,24.3200
2023-03-08T00:33:49.703Z,24.3300
2023-03-08T00:34:00.908Z,24.3400
2023-03-08T00:34:11.941Z,24.3500
2023-03-08T00:34:22.992Z,24.3500
2023-03-08T00:34:34.182Z,24.3300
2023-03-08T00:34:45.417Z,24.3300
2023-03-08T00:34:56.590Z,24.3200
2023-03-08T00:35:07.789Z,24.3200
2023-03-08T00:35:19.102Z,24.3200
2023-03-08T00:35:30.208Z,24.3200
2023-03-08T00:35:41.432Z,24.3300
2023-03-08T00:35:52.552Z,24.3400
2023-03-08T00:36:03.609Z,24.3300
2023-03-08T00:36:14.691Z,24.3300
2023-03-08T00:36:25.868Z,24.3300
2023-03-08T00:36:37.070Z,24.3200
2023-03-08T00:36:48.269Z,24.3100
2023-03-08T00:36:59.468Z,24.3000
2023-03-08T00:37:10.662Z,24.3100
2023-03-08T00:37:21.870Z,24.3100
2023-03-08T00:37:33.072Z,24.3100
2023-03-08T00:37:44.270Z,24.3100
2023-03-08T00:37:55.319Z,24.3200
2023-03-08T00:38:06.383Z,24.3200
2023-03-08T00:38:17.542Z,24.3300
2023-03-08T00:38:28.590Z,24.3300
2023-03-08T00:38:39.630Z,24.3200
2023-03-08T00:38:50.835Z,24.3200
2023-03-08T00:39:02.029Z,24.3200
2023-03-08T00:39:13.223Z,24.3200
2023-03-08T00:39:24.425Z,24.3100
2023-03-08T00:39:35.629Z,24.3000
2023-03-08T00:39:46.828Z,24.3000
2023-03-08T00:39:58.035Z,24.3000
2023-03-08T00:40:09.228Z,24.3100
2023-03-08T00:40:20.283Z,24.3100
2023-03-08T00:40:31.390Z,24.3100
2023-03-08T00:40:42.513Z,24.3200
2023-03-08T00:40:53.545Z,24.3200
2023-03-08T00:41:04.594Z,24.3200
2023-03-08T00:41:15.787Z,24.3100
2023-03-08T00:41:27.010Z,24.3100
2023-03-08T00:41:38.188Z,24.3000
2023-03-08T00:41:49.401Z,24.3100
2023-03-08T00:42:00.585Z,24.3100
2023-03-08T00:42:11.793Z,24.3100
2023-03-08T00:42:22.832Z,24.3100
2023-03-08T00:42:33.912Z,24.3100
2023-03-08T00:42:44.945Z,24.3100
2023-03-08T00:42:56.277Z,24.3000
2023-03-08T00:43:07.515Z,24.3000
2023-03-08T00:43:18.665Z,24.2900
2023-03-08T00:43:29.865Z,24.2900
2023-03-08T00:43:41.083Z,24.2900
2023-03-08T00:43:52.280Z,24.2800
2023-03-08T00:44:03.484Z,24.2900
2023-03-08T00:44:14.664Z,24.2900
2023-03-08T00:44:25.721Z,24.2900
2023-03-08T00:44:36.785Z,24.2900
2023-03-08T00:44:47.826Z,24.2900
2023-03-08T00:44:58.885Z,24.2900
2023-03-08T00:45:10.031Z,24.2900
2023-03-08T00:45:21.066Z,24.2900
2023-03-08T00:45:32.126Z,24.2900
2023-03-08T00:45:43.171Z,24.3000
2023-03-08T00:45:54.184Z,24.3000
2023-03-08T00:46:05.386Z,24.3000
2023-03-08T00:46:16.705Z,24.3100
2023-03-08T00:46:27.840Z,24.3100
2023-03-08T00:46:39.055Z,24.3000
2023-03-08T00:46:50.358Z,24.2900
2023-03-08T00:47:01.426Z,24.2800
2023-03-08T00:47:12.586Z,24.2700
2023-03-08T00:47:23.792Z,24.2600
2023-03-08T00:47:34.997Z,24.2600
2023-03-08T00:47:46.197Z,24.2600
2023-03-08T00:47:57.387Z,24.2700
2023-03-08T00:48:08.626Z,24.2700
2023-03-08T00:48:19.826Z,24.2600
2023-03-08T00:48:31.003Z,24.2600
2023-03-08T00:48:42.196Z,24.2700
2023-03-08T00:48:53.765Z,24.2700
2023-03-08T00:49:04.937Z,24.2700
2023-03-08T00:49:16.105Z,24.2600
2023-03-08T00:49:27.310Z,24.2500
2023-03-08T00:49:38.511Z,24.2600
2023-03-08T00:49:49.751Z,24.2600
2023-03-08T00:50:00.908Z,24.2600
2023-03-08T00:50:11.945Z,24.2600
2023-03-08T00:50:22.985Z,24.2600
2023-03-08T00:50:34.188Z,24.2600
2023-03-08T00:50:45.391Z,24.2700
2023-03-08T00:50:56.592Z,24.2700
2023-03-08T00:51:07.805Z,24.2700
2023-03-08T00:51:18.985Z,24.2700
2023-03-08T00:51:30.192Z,24.2600
2023-03-08T00:51:41.385Z,24.2500
2023-03-08T00:51:52.594Z,24.2500
2023-03-08T00:52:03.795Z,24.2400
2023-03-08T00:52:14.827Z,24.2400
2023-03-08T00:52:25.870Z,24.2500
2023-03-08T00:52:37.076Z,24.2500
2023-03-08T00:52:48.274Z,24.2600
2023-03-08T00:52:59.475Z,24.2700
2023-03-08T00:53:10.706Z,24.2800
2023-03-08T00:53:21.881Z,24.2800
2023-03-08T00:53:33.075Z,24.2900
2023-03-08T00:53:44.282Z,24.2900
2023-03-08T00:53:55.298Z,24.3000
2023-03-08T00:54:06.364Z,24.2900
2023-03-08T00:54:17.548Z,24.2800
2023-03-08T00:54:28.752Z,24.2700
2023-03-08T00:54:39.948Z,24.2600
2023-03-08T00:54:50.976Z,24.2600
2023-03-08T00:55:02.038Z,24.2600
2023-03-08T00:55:13.233Z,24.2600
2023-03-08T00:55:24.277Z,24.2700
2023-03-08T00:55:35.327Z,24.2700
2023-03-08T00:55:46.511Z,24.2700
2023-03-08T00:55:57.709Z,24.2700
2023-03-08T00:56:08.911Z,24.2700
2023-03-08T00:56:20.111Z,24.2700
2023-03-08T00:56:31.319Z,24.2800
2023-03-08T00:56:42.519Z,24.2800
2023-03-08T00:56:53.706Z,24.2900
2023-03-08T00:57:04.911Z,24.2900
2023-03-08T00:57:16.108Z,24.2900
2023-03-08T00:57:27.202Z,24.2900
2023-03-08T00:57:38.257Z,24.2800
2023-03-08T00:57:49.386Z,24.2800
2023-03-08T00:58:00.586Z,24.2800
2023-03-08T00:58:11.844Z,24.2800
2023-03-08T00:58:23.000Z,24.2800
2023-03-08T00:58:34.069Z,24.2800
2023-03-08T00:58:45.124Z,24.2900
2023-03-08T00:58:56.180Z,24.2900
2023-03-08T00:59:07.235Z,24.2900
2023-03-08T00:59:18.346Z,24.3000
2023-03-08T00:59:29.547Z,24.3000
2023-03-08T00:59:40.592Z,24.3000
2023-03-08T00:59:51.632Z,24.3000
2023-03-08T01:00:02.749Z,24.3000
2023-03-08T01:00:13.799Z,24.3000
2023-03-08T01:00:24.925Z,24.3000
2023-03-08T01:00:36.147Z,24.3000
2023-03-08T01:00:47.238Z,24.3000
2023-03-08T01:00:58.348Z,24.3000
2023-03-08T01:01:09.463Z,24.3000
2023-03-08T01:01:20.679Z,24.3000
2023-03-08T01:01:31.799Z,24.2900
2023-03-08T01:01:43.002Z,24.2900
2023-03-08T01:01:54.037Z,24.2800
2023-03-08T01:02:05.096Z,24.2700
2023-03-08T01:02:16.272Z,24.2600
2023-03-08T01:02:27.473Z,24.2600
2023-03-08T01:02:38.674Z,24.2600
2023-03-08T01:02:49.896Z,24.2700
2023-03-08T01:03:01.072Z,24.2800
2023-03-08T01:03:12.306Z,24.2800
2023-03-08T01:03:23.479Z,24.2900
2023-03-08T01:03:34.667Z,24.2900
2023-03-08T01:03:45.882Z,24.2900
2023-03-08T01:03:56.949Z,24.2900
2023-03-08T01:04:08.037Z,24.3000
2023-03-08T01:04:19.153Z,24.3000
2023-03-08T01:04:30.357Z,24.3000
2023-03-08T01:04:41.552Z,24.3000
2023-03-08T01:04:52.614Z,24.3100
2023-03-08T01:05:03.685Z,24.3100
2023-03-08T01:05:14.846Z,24.3100
2023-03-08T01:05:26.039Z,24.3000
2023-03-08T01:05:37.226Z,24.3000
2023-03-08T01:05:48.433Z,24.3000
2023-03-08T01:05:59.635Z,24.3000
2023-03-08T01:06:10.832Z,24.2900
2023-03-08T01:06:22.032Z,24.2900
2023-03-08T01:06:33.229Z,24.2900
2023-03-08T01:06:44.432Z,24.3000
2023-03-08T01:06:55.482Z,24.3000
2023-03-08T01:07:06.544Z,24.3000
2023-03-08T01:07:17.712Z,24.3100
2023-03-08T01:07:28.911Z,24.3100
2023-03-08T01:07:40.113Z,24.3100
2023-03-08T01:07:51.148Z,24.3100
2023-03-08T01:08:02.209Z,24.3100
2023-03-08T01:08:13.417Z,24.3100
2023-03-08T01:08:24.601Z,24.3100
2023-03-08T01:08:35.805Z,24.3100
2023-03-08T01:08:46.990Z,24.3000
2023-03-08T01:08:58.184Z,24.3000
2023-03-08T01:09:09.233Z,24.3000
2023-03-08T01:09:20.265Z,24.3100
2023-03-08T01:09:31.467Z,24.3100
2023-03-08T01:09:42.526Z,24.3200
2023-03-08T01:09:53.583Z,24.3300
2023-03-08T01:10:04.746Z,24.3200
2023-03-08T01:10:15.800Z,24.3300
2023-03-08T01:10:26.849Z,24.3300
2023-03-08T01:10:38.033Z,24.3300
2023-03-08T01:10:49.230Z,24.3200
2023-03-08T01:11:00.445Z,24.3200
2023-03-08T01:11:11.663Z,24.3200
2023-03-08T01:11:22.836Z,24.3100
2023-03-08T01:11:34.026Z,24.3000
2023-03-08T01:11:45.230Z,24.3000
2023-03-08T01:11:56.428Z,24.2900
2023-03-08T01:12:07.632Z,24.2900
2023-03-08T01:12:18.666Z,24.2900
2023-03-08T01:12:29.711Z,24.2900
2023-03-08T01:12:40.913Z,24.3000
2023-03-08T01:12:52.113Z,24.3100
2023-03-08T01:13:03.313Z,24.3100
2023-03-08T01:13:14.540Z,24.3200
2023-03-08T01:13:25.705Z,24.3200
2023-03-08T01:13:36.914Z,24.3200
2023-03-08T01:13:48.107Z,24.3200
2023-03-08T01:13:59.318Z,24.3100
2023-03-08T01:14:10.505Z,24.3100
2023-03-08T01:14:21.563Z,24.3100
2023-03-08T01:14:32.637Z,24.3100
2023-03-08T01:14:43.788Z,24.3100
2023-03-08T01:14:55.006Z,24.3200
2023-03-08T01:15:06.196Z,24.3200
2023-03-08T01:15:17.385Z,24.3100
2023-03-08T01:15:28.591Z,24.3000
2023-03-08T01:15:39.787Z,24.2900
2023-03-08T01:15:50.994Z,24.2800
2023-03-08T01:16:02.204Z,24.2800
2023-03-08T01:16:13.384Z,24.2800
2023-03-08T01:16:24.453Z,24.2900
2023-03-08T01:16:35.485Z,24.2900
2023-03-08T01:16:46.665Z,24.2900
2023-03-08T01:16:57.897Z,24.2900
2023-03-08T01:17:08.946Z,24.2900
2023-03-08T01:17:20.011Z,24.2800
2023-03-08T01:17:31.069Z,24.2800
2023-03-08T01:17:42.130Z,24.2800
2023-03-08T01:17:53.225Z,24.2800
2023-03-08T01:18:04.430Z,24.2800
2023-03-08T01:18:15.648Z,24.2800
2023-03-08T01:18:26.850Z,24.2900
2023-03-08T01:18:38.026Z,24.2900
2023-03-08T01:18:49.235Z,24.2900
2023-03-08T01:19:00.436Z,24.2800
2023-03-08T01:19:11.475Z,24.2700
2023-03-08T01:19:22.507Z,24.2600
2023-03-08T01:19:33.715Z,24.2500
2023-03-08T01:19:44.904Z,24.2500
2023-03-08T01:19:56.135Z,24.2500
2023-03-08T01:20:07.195Z,24.2600
2023-03-08T01:20:18.256Z,24.2600
2023-03-08T01:20:29.386Z,24.2600
2023-03-08T01:20:40.443Z,24.2600
2023-03-08T01:20:51.465Z,24.2600
2023-03-08T01:21:02.673Z,24.2600
2023-03-08T01:21:13.876Z,24.2500
2023-03-08T01:21:25.070Z,24.2500
2023-03-08T01:21:36.267Z,24.2500
2023-03-08T01:21:47.321Z,24.2500
2023-03-08T01:21:58.385Z,24.2500
2023-03-08T01:22:09.555Z,24.2500
2023-03-08T01:22:20.746Z,24.2500
2023-03-08T01:22:31.961Z,24.2500
2023-03-08T01:22:43.145Z,24.2500
2023-03-08T01:22:54.311Z,24.2500
2023-03-08T01:23:05.562Z,24.2500
2023-03-08T01:23:16.860Z,24.2500
2023-03-08T01:23:28.018Z,24.2600
2023-03-08T01:23:40.618Z,24.2700
2023-03-08T01:23:52.626Z,24.2700
2023-03-08T01:24:03.726Z,24.2700
2023-03-08T01:24:14.779Z,24.2800
2023-03-08T01:24:25.864Z,24.2800
2023-03-08T01:24:37.092Z,24.2800
2023-03-08T01:24:48.272Z,24.2800
2023-03-08T01:24:59.315Z,24.2800
2023-03-08T01:25:10.344Z,24.2900
2023-03-08T01:25:21.557Z,24.2900
2023-03-08T01:25:32.752Z,24.3000
2023-03-08T01:25:43.957Z,24.3100
2023-03-08T01:25:55.146Z,24.3100
2023-03-08T01:26:06.343Z,24.3000
2023-03-08T01:26:17.552Z,24.3000
2023-03-08T01:26:28.762Z,24.3000
2023-03-08T01:26:39.951Z,24.3000
2023-03-08T01:26:51.161Z,24.2900
2023-03-08T01:27:02.361Z,24.2800
2023-03-08T01:27:13.400Z,24.2700
2023-03-08T01:27:24.430Z,24.2700
2023-03-08T01:27:35.635Z,24.2700
2023-03-08T01:27:46.839Z,24.2700
2023-03-08T01:27:58.056Z,24.2600
2023-03-08T01:28:09.061Z,24.2600
2023-03-08T01:28:20.144Z,24.2500
2023-03-08T01:28:31.243Z,24.2500
2023-03-08T01:28:42.315Z,24.2600
2023-03-08T01:28:53.396Z,24.2700
2023-03-08T01:29:04.596Z,24.2800
2023-03-08T01:29:15.795Z,24.2800
2023-03-08T01:29:26.992Z,24.2800
2023-03-08T01:29:38.192Z,24.2800
2023-03-08T01:29:49.223Z,24.2800
2023-03-08T01:30:00.274Z,24.2700
2023-03-08T01:30:11.331Z,24.2700
2023-03-08T01:30:22.371Z,24.2800
2023-03-08T01:30:33.546Z,24.2800
2023-03-08T01:30:44.753Z,24.2800
2023-03-08T01:30:55.826Z,24.2900
2023-03-08T01:31:06.900Z,24.2800
2023-03-08T01:31:18.032Z,24.2800
2023-03-08T01:31:29.151Z,24.2900
2023-03-08T01:31:40.232Z,24.2800
2023-03-08T01:31:51.317Z,24.2800
2023-03-08T01:32:02.507Z,24.2800
2023-03-08T01:32:13.626Z,24.2800
2023-03-08T01:32:24.680Z,24.2900
2023-03-08T01:32:35.782Z,24.2900
2023-03-08T01:32:47.007Z,24.2900
2023-03-08T01:32:58.196Z,24.2900
2023-03-08T01:33:09.234Z,24.2800
2023-03-08T01:33:20.316Z,24.2900
2023-03-08T01:33:31.464Z,24.2900
2023-03-08T01:33:42.681Z,24.2900
2023-03-08T01:33:53.875Z,24.2900
2023-03-08T01:34:05.073Z,24.2900
2023-03-08T01:34:16.265Z,24.2900
2023-03-08T01:34:27.470Z,24.2900
2023-03-08T01:34:38.694Z,24.2900
2023-03-08T01:34:49.870Z,24.2900
2023-03-08T01:35:01.101Z,24.2900
2023-03-08T01:35:12.281Z,24.2800
2023-03-08T01:35:23.471Z,24.2700
2023-03-08T01:35:34.738Z,24.2600
2023-03-08T01:35:45.837Z,24.2500
2023-03-08T01:35:57.114Z,24.2400
2023-03-08T01:36:08.361Z,24.2400
2023-03-08T01:36:19.371Z,24.2400
2023-03-08T01:36:30.468Z,24.2400
2023-03-08T01:36:41.560Z,24.2500
2023-03-08T01:36:52.618Z,24.2500
2023-03-08T01:37:03.683Z,24.2500
2023-03-08T01:37:14.824Z,24.2500
2023-03-08T01:37:25.879Z,24.2600
2023-03-08T01:37:36.938Z,24.2500
2023-03-08T01:37:48.110Z,24.2500
2023-03-08T01:37:59.309Z,24.2500
2023-03-08T01:38:10.519Z,24.2500
2023-03-08T01:38:21.585Z,24.2400
2023-03-08T01:38:32.643Z,24.2400
2023-03-08T01:38:43.783Z,24.2400
2023-03-08T01:38:54.997Z,24.2400
2023-03-08T01:39:06.035Z,24.2500
2023-03-08T01:39:17.084Z,24.2500
2023-03-08T01:39:28.273Z,24.2500
2023-03-08T01:39:39.310Z,24.2500
2023-03-08T01:39:50.356Z,24.2500
2023-03-08T01:40:01.556Z,24.2500
2023-03-08T01:40:12.751Z,24.2500
2023-03-08T01:40:23.987Z,24.2400
2023-03-08T01:40:35.143Z,24.2500
2023-03-08T01:40:46.353Z,24.2500
2023-03-08T01:40:57.583Z,24.2600
2023-03-08T01:41:08.756Z,24.2600
2023-03-08T01:41:19.950Z,24.2600
2023-03-08T01:41:31.177Z,24.2700
2023-03-08T01:41:42.349Z,24.2700
2023-03-08T01:41:53.550Z,24.2700
2023-03-08T01:42:04.750Z,24.2800
2023-03-08T01:42:15.966Z,24.2700
2023-03-08T01:42:26.989Z,24.2800
2023-03-08T01:42:38.034Z,24.2800
2023-03-08T01:42:49.084Z,24.2800
2023-03-08T01:43:00.162Z,24.2700
2023-03-08T01:43:11.308Z,24.2700
2023-03-08T01:43:22.562Z,24.2600
2023-03-08T01:43:33.585Z,24.2600
2023-03-08T01:43:44.631Z,24.2500
2023-03-08T01:43:55.667Z,24.2500
2023-03-08T01:44:06.763Z,24.2400
2023-03-08T01:44:17.865Z,24.2400
2023-03-08T01:44:29.068Z,24.2400
2023-03-08T01:44:40.264Z,24.2300
2023-03-08T01:44:51.477Z,24.2300
2023-03-08T01:45:02.661Z,24.2200
2023-03-08T01:45:13.874Z,24.2200
2023-03-08T01:45:25.069Z,24.2100
2023-03-08T01:45:36.272Z,24.2100
2023-03-08T01:45:47.468Z,24.2100
2023-03-08T01:45:58.543Z,24.2200
2023-03-08T01:46:09.593Z,24.2300
2023-03-08T01:46:20.749Z,24.2400
2023-03-08T01:46:31.800Z,24.2500
2023-03-08T01:46:42.865Z,24.2500
2023-03-08T01:46:54.035Z,24.2500
2023-03-08T01:47:05.228Z,24.2400
2023-03-08T01:47:16.428Z,24.2400
2023-03-08T01:47:27.627Z,24.2300
2023-03-08T01:47:38.821Z,24.2200
2023-03-08T01:47:49.875Z,24.2100
2023-03-08T01:48:00.902Z,24.2100
2023-03-08T01:48:11.965Z,24.2200
2023-03-08T01:48:23.021Z,24.2300
2023-03-08T01:48:34.198Z,24.2300
2023-03-08T01:48:45.237Z,24.2200
2023-03-08T01:48:56.310Z,24.2200
2023-03-08T01:49:07.347Z,24.2100
2023-03-08T01:49:18.404Z,24.2100
2023-03-08T01:49:29.554Z,24.2100
2023-03-08T01:49:40.745Z,24.2100
2023-03-08T01:49:51.942Z,24.2200
2023-03-08T01:50:03.166Z,24.2100
2023-03-08T01:50:14.344Z,24.2200
2023-03-08T01:50:25.548Z,24.2200
2023-03-08T01:50:36.755Z,24.2200
2023-03-08T01:50:47.953Z,24.2300
2023-03-08T01:50:59.143Z,24.2200
2023-03-08T01:51:10.356Z,24.2200
2023-03-08T01:51:21.397Z,24.2200
2023-03-08T01:51:32.439Z,24.2200
2023-03-08T01:51:43.674Z,24.2200
2023-03-08T01:51:54.828Z,24.2200
2023-03-08T01:52:06.032Z,24.2100
2023-03-08T01:52:17.231Z,24.2100
2023-03-08T01:52:28.276Z,24.2200
2023-03-08T01:52:39.316Z,24.2300
2023-03-08T01:52:50.508Z,24.2300
2023-03-08T01:53:01.706Z,24.2400
2023-03-08T01:53:12.922Z,24.2400
2023-03-08T01:53:24.130Z,24.2500
2023-03-08T01:53:35.301Z,24.2400
2023-03-08T01:53:46.512Z,24.2500
2023-03-08T01:53:57.707Z,24.2400
2023-03-08T01:54:08.931Z,24.2500
2023-03-08T01:54:20.103Z,24.2500
2023-03-08T01:54:31.163Z,24.2600
2023-03-08T01:54:42.209Z,24.2700
2023-03-08T01:54:53.411Z,24.2900
2023-03-08T01:55:04.582Z,24.2900
2023-03-08T01:55:15.809Z,24.3100
2023-03-08T01:55:26.988Z,24.3100
2023-03-08T01:55:38.221Z,24.3100
2023-03-08T01:55:49.382Z,24.3100
2023-03-08T01:56:00.447Z,24.3000
2023-03-08T01:56:11.492Z,24.3100
2023-03-08T01:56:22.517Z,24.3200
2023-03-08T01:56:33.562Z,24.3200
2023-03-08T01:56:44.742Z,24.3200
2023-03-08T01:56:55.797Z,24.3300
2023-03-08T01:57:06.830Z,24.3400
2023-03-08T01:57:17.890Z,24.3300
2023-03-08T01:57:28.948Z,24.3300
2023-03-08T01:57:40.118Z,24.3400
2023-03-08T01:57:51.150Z,24.3400
2023-03-08T01:58:02.197Z,24.3500
2023-03-08T01:58:13.382Z,24.3500
2023-03-08T01:58:24.622Z,24.3600
2023-03-08T01:58:35.785Z,24.3600
2023-03-08T01:58:47.036Z,24.3600
2023-03-08T01:58:58.193Z,24.3600
2023-03-08T01:59:09.404Z,24.3700
2023-03-08T01:59:20.586Z,24.3700
2023-03-08T01:59:31.790Z,24.3800
2023-03-08T01:59:42.982Z,24.3800
2023-03-08T01:59:54.020Z,24.3800
2023-03-08T02:00:05.065Z,24.3800
2023-03-08T02:00:16.263Z,24.3700
2023-03-08T02:00:27.464Z,24.3600
2023-03-08T02:00:38.585Z,24.3600
2023-03-08T02:00:49.667Z,24.3600
2023-03-08T02:01:00.763Z,24.3600
2023-03-08T02:01:11.976Z,24.3700
2023-03-08T02:01:23.215Z,24.3700
2023-03-08T02:01:34.344Z,24.3800
2023-03-08T02:01:45.381Z,24.3800
2023-03-08T02:01:56.432Z,24.3800
2023-03-08T02:02:07.498Z,24.3800
2023-03-08T02:02:18.562Z,24.3800
2023-03-08T02:02:29.706Z,24.3800
2023-03-08T02:02:40.781Z,24.3800
2023-03-08T02:02:51.833Z,24.3800
2023-03-08T02:03:02.994Z,24.3900
2023-03-08T02:03:14.188Z,24.3900
2023-03-08T02:03:25.434Z,24.3900
2023-03-08T02:03:36.597Z,24.3900
2023-03-08T02:03:47.781Z,24.3800
2023-03-08T02:03:58.987Z,24.3600
2023-03-08T02:04:10.037Z,24.3500
2023-03-08T02:04:21.072Z,24.3500
2023-03-08T02:04:32.262Z,24.3500
2023-03-08T02:04:43.460Z,24.3500
2023-03-08T02:04:54.676Z,24.3600
2023-03-08T02:05:05.904Z,24.3600
2023-03-08T02:05:17.060Z,24.3600
2023-03-08T02:05:28.164Z,24.3600
2023-03-08T02:05:39.175Z,24.3600
2023-03-08T02:05:50.362Z,24.3600
2023-03-08T02:06:01.552Z,24.3500
2023-03-08T02:06:12.748Z,24.3500
2023-03-08T02:06:23.948Z,24.3500
2023-03-08T02:06:35.153Z,24.3500
2023-03-08T02:06:46.340Z,24.3600
2023-03-08T02:06:57.560Z,24.3500
2023-03-08T02:07:08.761Z,24.3500
2023-03-08T02:07:19.945Z,24.3400
2023-03-08T02:07:30.993Z,24.3400
2023-03-08T02:07:42.076Z,24.3400
2023-03-08T02:07:53.238Z,24.3500
2023-03-08T02:08:04.446Z,24.3500
2023-03-08T02:08:15.494Z,24.3600
2023-03-08T02:08:26.577Z,24.3600
2023-03-08T02:08:37.744Z,24.3700
2023-03-08T02:08:48.912Z,24.3700
2023-03-08T02:09:00.101Z,24.3700
2023-03-08T02:09:11.318Z,24.3700
2023-03-08T02:09:22.503Z,24.3800
2023-03-08T02:09:33.721Z,24.3800
2023-03-08T02:09:44.901Z,24.3800
2023-03-08T02:09:55.941Z,24.3800
2023-03-08T02:10:06.989Z,24.3800
2023-03-08T02:10:18.221Z,24.3800
2023-03-08T02:10:29.270Z,24.3800
2023-03-08T02:10:40.330Z,24.3700
2023-03-08T02:10:51.388Z,24.3700
2023-03-08T02:11:02.461Z,24.3700
2023-03-08T02:11:13.543Z,24.3700
2023-03-08T02:11:24.761Z,24.3700
2023-03-08T02:11:35.822Z,24.3700
2023-03-08T02:11:46.891Z,24.3700
2023-03-08T02:11:58.031Z,24.3800
2023-03-08T02:12:09.089Z,24.3900
2023-03-08T02:12:20.157Z,24.3900
2023-03-08T02:12:31.314Z,24.3900
2023-03-08T02:12:42.383Z,24.3900
2023-03-08T02:12:53.432Z,24.3800
2023-03-08T02:13:04.604Z,24.3800
2023-03-08T02:13:15.789Z,24.3800
2023-03-08T02:13:27.024Z,24.3800
2023-03-08T02:13:38.192Z,24.3700
2023-03-08T02:13:49.384Z,24.3600
2023-03-08T02:14:00.597Z,24.3500
2023-03-08T02:14:11.798Z,24.3500
2023-03-08T02:14:22.840Z,24.3400
2023-03-08T02:14:33.878Z,24.3300
2023-03-08T02:14:45.078Z,24.3400